Kingston upon Thames, United Kingdom
Current Conditions -  °F | °C
As of 1:20 PM on Thursday 27 Nov 2014 (Local Time) from EGLL Reporting Station
Broken Clouds Broken Clouds  
Wind Chill: 50°   Ceiling: 3500
Heat Index: 50°   Visibility: 6mi
Dew Point: 45°   Wind: 2mph
Humidity: 82%   Direction: NA
Pressure: 29.59"   Gusts: NA
Location:  51.41°N, 0.3°W
Report Text: EGLL 271320Z VRB02KT 9999 FEW012 BKN035 10/07 Q1002 NOSIG
Loading
Personal Weather Stations






























Interactive Weather Map New forecast layout! Learn more

10-Day Weather Forecast

Advertisements
Track Severe Weather on mobile